sensor_id;sensor_type;location;lat;lon;timestamp;P1;durP1;ratioP1;P2;durP2;ratioP2
21798;SDS011;24973;47.178;15.316;2022-12-26T00:00:17;2.70;;;2.43;;
21798;SDS011;24973;47.178;15.316;2022-12-26T00:03:06;2.60;;;2.23;;
21798;SDS011;24973;47.178;15.316;2022-12-26T00:05:56;4.00;;;1.50;;
21798;SDS011;24973;47.178;15.316;2022-12-26T00:08:45;2.97;;;2.23;;
21798;SDS011;24973;47.178;15.316;2022-12-26T00:11:34;2.57;;;1.60;;
21798;SDS011;24973;47.178;15.316;2022-12-26T00:14:24;2.17;;;1.50;;
21798;SDS011;24973;47.178;15.316;2022-12-26T00:17:13;3.77;;;2.20;;
21798;SDS011;24973;47.178;15.316;2022-12-26T00:20:02;2.97;;;1.80;;
21798;SDS011;24973;47.178;15.316;2022-12-26T00:22:53;1.60;;;1.50;;
21798;SDS011;24973;47.178;15.316;2022-12-26T00:25:42;4.43;;;2.30;;
21798;SDS011;24973;47.178;15.316;2022-12-26T00:28:31;2.50;;;2.30;;
21798;SDS011;24973;47.178;15.316;2022-12-26T00:31:20;3.30;;;2.10;;
21798;SDS011;24973;47.178;15.316;2022-12-26T00:34:12;4.30;;;2.80;;
21798;SDS011;24973;47.178;15.316;2022-12-26T00:37:01;5.10;;;2.57;;
21798;SDS011;24973;47.178;15.316;2022-12-26T00:39:51;6.63;;;2.07;;
21798;SDS011;24973;47.178;15.316;2022-12-26T00:42:40;7.43;;;2.13;;
21798;SDS011;24973;47.178;15.316;2022-12-26T00:45:28;2.17;;;1.97;;
21798;SDS011;24973;47.178;15.316;2022-12-26T00:48:17;1.70;;;1.50;;
21798;SDS011;24973;47.178;15.316;2022-12-26T00:51:06;2.00;;;1.80;;
21798;SDS011;24973;47.178;15.316;2022-12-26T00:53:55;4.20;;;1.93;;
21798;SDS011;24973;47.178;15.316;2022-12-26T00:56:46;9.33;;;2.67;;
21798;SDS011;24973;47.178;15.316;2022-12-26T00:59:35;1.60;;;1.30;;
21798;SDS011;24973;47.178;15.316;2022-12-26T01:02:23;2.17;;;1.73;;
21798;SDS011;24973;47.178;15.316;2022-12-26T01:05:32;3.73;;;2.70;;
21798;SDS011;24973;47.178;15.316;2022-12-26T01:08:21;1.47;;;1.37;;
21798;SDS011;24973;47.178;15.316;2022-12-26T01:11:11;3.77;;;2.13;;
21798;SDS011;24973;47.178;15.316;2022-12-26T01:14:23;3.10;;;2.23;;
21798;SDS011;24973;47.178;15.316;2022-12-26T01:17:12;3.47;;;1.57;;
21798;SDS011;24973;47.178;15.316;2022-12-26T01:20:01;6.23;;;1.97;;
21798;SDS011;24973;47.178;15.316;2022-12-26T01:22:50;3.70;;;2.20;;
21798;SDS011;24973;47.178;15.316;2022-12-26T01:25:39;0.77;;;0.77;;
21798;SDS011;24973;47.178;15.316;2022-12-26T01:28:27;3.70;;;1.53;;
21798;SDS011;24973;47.178;15.316;2022-12-26T01:31:18;1.33;;;1.23;;
21798;SDS011;24973;47.178;15.316;2022-12-26T01:34:08;1.73;;;1.47;;
21798;SDS011;24973;47.178;15.316;2022-12-26T01:36:57;1.73;;;1.57;;
21798;SDS011;24973;47.178;15.316;2022-12-26T01:39:46;1.87;;;1.47;;
21798;SDS011;24973;47.178;15.316;2022-12-26T01:42:36;2.30;;;1.10;;
21798;SDS011;24973;47.178;15.316;2022-12-26T01:45:28;1.70;;;1.57;;
21798;SDS011;24973;47.178;15.316;2022-12-26T01:48:21;2.10;;;1.43;;
21798;SDS011;24973;47.178;15.316;2022-12-26T01:51:19;1.27;;;0.93;;
21798;SDS011;24973;47.178;15.316;2022-12-26T01:54:10;2.47;;;1.60;;
21798;SDS011;24973;47.178;15.316;2022-12-26T01:57:01;2.13;;;1.47;;
21798;SDS011;24973;47.178;15.316;2022-12-26T01:59:57;0.87;;;0.87;;
21798;SDS011;24973;47.178;15.316;2022-12-26T02:02:48;1.47;;;1.37;;
21798;SDS011;24973;47.178;15.316;2022-12-26T02:05:56;2.93;;;1.27;;
21798;SDS011;24973;47.178;15.316;2022-12-26T02:08:47;1.60;;;1.30;;
21798;SDS011;24973;47.178;15.316;2022-12-26T02:11:37;2.37;;;1.40;;
21798;SDS011;24973;47.178;15.316;2022-12-26T02:14:29;1.10;;;1.00;;
21798;SDS011;24973;47.178;15.316;2022-12-26T02:17:19;1.23;;;1.03;;
21798;SDS011;24973;47.178;15.316;2022-12-26T02:20:11;2.47;;;1.20;;
21798;SDS011;24973;47.178;15.316;2022-12-26T02:23:19;1.40;;;1.30;;
21798;SDS011;24973;47.178;15.316;2022-12-26T02:27:09;2.00;;;1.40;;
21798;SDS011;24973;47.178;15.316;2022-12-26T02:30:36;1.73;;;1.20;;
21798;SDS011;24973;47.178;15.316;2022-12-26T02:33:38;1.10;;;1.00;;
21798;SDS011;24973;47.178;15.316;2022-12-26T02:36:38;2.17;;;1.50;;
21798;SDS011;24973;47.178;15.316;2022-12-26T02:39:55;3.30;;;1.30;;
21798;SDS011;24973;47.178;15.316;2022-12-26T02:42:58;1.20;;;1.10;;
21798;SDS011;24973;47.178;15.316;2022-12-26T02:45:57;1.70;;;1.27;;
21798;SDS011;24973;47.178;15.316;2022-12-26T02:49:15;1.43;;;1.10;;
21798;SDS011;24973;47.178;15.316;2022-12-26T02:52:11;0.77;;;0.77;;
21798;SDS011;24973;47.178;15.316;2022-12-26T02:55:25;1.37;;;1.10;;
21798;SDS011;24973;47.178;15.316;2022-12-26T02:58:35;1.53;;;1.43;;
21798;SDS011;24973;47.178;15.316;2022-12-26T03:01:57;1.10;;;1.00;;
21798;SDS011;24973;47.178;15.316;2022-12-26T03:05:08;1.50;;;0.80;;
21798;SDS011;24973;47.178;15.316;2022-12-26T03:08:23;1.80;;;1.30;;
21798;SDS011;24973;47.178;15.316;2022-12-26T03:11:35;2.80;;;1.20;;
21798;SDS011;24973;47.178;15.316;2022-12-26T03:14:44;1.67;;;1.13;;
21798;SDS011;24973;47.178;15.316;2022-12-26T03:17:39;1.73;;;1.63;;
21798;SDS011;24973;47.178;15.316;2022-12-26T03:20:32;0.83;;;0.83;;
21798;SDS011;24973;47.178;15.316;2022-12-26T03:23:23;1.47;;;1.00;;
21798;SDS011;24973;47.178;15.316;2022-12-26T03:26:14;1.10;;;1.00;;
21798;SDS011;24973;47.178;15.316;2022-12-26T03:29:30;1.67;;;1.23;;
21798;SDS011;24973;47.178;15.316;2022-12-26T03:32:42;1.40;;;1.30;;
21798;SDS011;24973;47.178;15.316;2022-12-26T03:35:32;1.57;;;1.17;;
21798;SDS011;24973;47.178;15.316;2022-12-26T03:38:21;1.37;;;1.27;;
21798;SDS011;24973;47.178;15.316;2022-12-26T03:41:21;2.60;;;1.10;;
21798;SDS011;24973;47.178;15.316;2022-12-26T03:44:35;0.90;;;0.90;;
21798;SDS011;24973;47.178;15.316;2022-12-26T03:47:53;1.93;;;1.27;;
21798;SDS011;24973;47.178;15.316;2022-12-26T03:51:07;2.10;;;1.63;;
21798;SDS011;24973;47.178;15.316;2022-12-26T03:54:21;1.00;;;1.00;;
21798;SDS011;24973;47.178;15.316;2022-12-26T03:57:35;1.33;;;1.13;;
21798;SDS011;24973;47.178;15.316;2022-12-26T04:00:47;1.50;;;1.40;;
21798;SDS011;24973;47.178;15.316;2022-12-26T04:03:57;1.90;;;1.53;;
21798;SDS011;24973;47.178;15.316;2022-12-26T04:07:19;0.77;;;0.77;;
21798;SDS011;24973;47.178;15.316;2022-12-26T04:10:30;4.13;;;1.57;;
21798;SDS011;24973;47.178;15.316;2022-12-26T04:13:45;1.00;;;1.00;;
21798;SDS011;24973;47.178;15.316;2022-12-26T04:16:59;1.00;;;0.90;;
21798;SDS011;24973;47.178;15.316;2022-12-26T04:20:12;1.43;;;1.17;;
21798;SDS011;24973;47.178;15.316;2022-12-26T04:23:09;2.17;;;1.50;;
21798;SDS011;24973;47.178;15.316;2022-12-26T04:26:22;2.60;;;2.03;;
21798;SDS011;24973;47.178;15.316;2022-12-26T04:29:35;1.30;;;1.20;;
21798;SDS011;24973;47.178;15.316;2022-12-26T04:32:41;1.77;;;1.60;;
21798;SDS011;24973;47.178;15.316;2022-12-26T04:35:52;1.73;;;1.63;;
21798;SDS011;24973;47.178;15.316;2022-12-26T04:39:05;2.00;;;1.60;;
21798;SDS011;24973;47.178;15.316;2022-12-26T04:42:14;1.40;;;1.30;;
21798;SDS011;24973;47.178;15.316;2022-12-26T04:45:22;2.83;;;1.10;;
21798;SDS011;24973;47.178;15.316;2022-12-26T04:48:12;1.43;;;1.20;;
21798;SDS011;24973;47.178;15.316;2022-12-26T04:51:20;1.63;;;1.20;;
21798;SDS011;24973;47.178;15.316;2022-12-26T04:54:09;1.77;;;1.47;;
21798;SDS011;24973;47.178;15.316;2022-12-26T04:56:57;1.77;;;1.33;;
21798;SDS011;24973;47.178;15.316;2022-12-26T04:59:46;2.87;;;1.20;;
21798;SDS011;24973;47.178;15.316;2022-12-26T05:02:36;1.67;;;1.13;;
21798;SDS011;24973;47.178;15.316;2022-12-26T05:05:43;1.13;;;1.13;;
21798;SDS011;24973;47.178;15.316;2022-12-26T05:08:56;2.03;;;1.80;;
21798;SDS011;24973;47.178;15.316;2022-12-26T05:12:03;1.73;;;1.50;;
21798;SDS011;24973;47.178;15.316;2022-12-26T05:14:54;2.53;;;1.37;;
21798;SDS011;24973;47.178;15.316;2022-12-26T05:17:43;3.00;;;2.50;;
21798;SDS011;24973;47.178;15.316;2022-12-26T05:20:49;1.73;;;1.53;;
21798;SDS011;24973;47.178;15.316;2022-12-26T05:23:56;1.77;;;1.67;;
21798;SDS011;24973;47.178;15.316;2022-12-26T05:27:03;1.97;;;1.70;;
21798;SDS011;24973;47.178;15.316;2022-12-26T05:30:10;1.13;;;1.13;;
21798;SDS011;24973;47.178;15.316;2022-12-26T05:32:58;1.33;;;1.00;;
21798;SDS011;24973;47.178;15.316;2022-12-26T05:36:05;1.40;;;1.30;;
21798;SDS011;24973;47.178;15.316;2022-12-26T05:38:55;1.50;;;1.40;;
21798;SDS011;24973;47.178;15.316;2022-12-26T05:41:45;2.27;;;1.70;;
21798;SDS011;24973;47.178;15.316;2022-12-26T05:44:34;7.90;;;3.97;;
21798;SDS011;24973;47.178;15.316;2022-12-26T05:47:23;9.73;;;3.97;;
21798;SDS011;24973;47.178;15.316;2022-12-26T05:50:12;2.70;;;2.37;;
21798;SDS011;24973;47.178;15.316;2022-12-26T05:53:01;4.70;;;2.87;;
21798;SDS011;24973;47.178;15.316;2022-12-26T05:55:52;5.03;;;2.73;;
21798;SDS011;24973;47.178;15.316;2022-12-26T05:58:41;3.83;;;2.53;;
21798;SDS011;24973;47.178;15.316;2022-12-26T06:01:30;2.43;;;2.00;;
21798;SDS011;24973;47.178;15.316;2022-12-26T06:04:19;2.77;;;2.00;;
21798;SDS011;24973;47.178;15.316;2022-12-26T06:07:08;1.40;;;1.30;;
21798;SDS011;24973;47.178;15.316;2022-12-26T06:09:57;2.40;;;1.87;;
21798;SDS011;24973;47.178;15.316;2022-12-26T06:12:47;1.90;;;1.70;;
21798;SDS011;24973;47.178;15.316;2022-12-26T06:15:37;3.40;;;1.73;;
21798;SDS011;24973;47.178;15.316;2022-12-26T06:18:26;4.03;;;2.13;;
21798;SDS011;24973;47.178;15.316;2022-12-26T06:21:15;2.07;;;1.87;;
21798;SDS011;24973;47.178;15.316;2022-12-26T06:24:06;1.57;;;1.33;;
21798;SDS011;24973;47.178;15.316;2022-12-26T06:26:55;2.50;;;1.67;;
21798;SDS011;24973;47.178;15.316;2022-12-26T06:29:45;2.63;;;1.73;;
21798;SDS011;24973;47.178;15.316;2022-12-26T06:32:34;2.00;;;1.10;;
21798;SDS011;24973;47.178;15.316;2022-12-26T06:35:23;2.47;;;1.00;;
21798;SDS011;24973;47.178;15.316;2022-12-26T06:38:12;1.73;;;1.63;;
21798;SDS011;24973;47.178;15.316;2022-12-26T06:41:03;1.70;;;1.60;;
21798;SDS011;24973;47.178;15.316;2022-12-26T06:43:53;1.97;;;1.60;;
21798;SDS011;24973;47.178;15.316;2022-12-26T06:46:44;1.87;;;1.77;;
21798;SDS011;24973;47.178;15.316;2022-12-26T06:49:33;1.63;;;1.43;;
21798;SDS011;24973;47.178;15.316;2022-12-26T06:52:22;2.47;;;2.03;;
21798;SDS011;24973;47.178;15.316;2022-12-26T06:55:11;2.07;;;1.90;;
21798;SDS011;24973;47.178;15.316;2022-12-26T06:58:00;1.07;;;1.00;;
21798;SDS011;24973;47.178;15.316;2022-12-26T07:00:49;2.13;;;1.30;;
21798;SDS011;24973;47.178;15.316;2022-12-26T07:03:39;2.47;;;1.97;;
21798;SDS011;24973;47.178;15.316;2022-12-26T07:06:32;8.97;;;3.30;;
21798;SDS011;24973;47.178;15.316;2022-12-26T07:09:24;12.27;;;4.93;;
21798;SDS011;24973;47.178;15.316;2022-12-26T07:12:17;12.10;;;4.63;;
21798;SDS011;24973;47.178;15.316;2022-12-26T07:15:07;9.53;;;5.40;;
21798;SDS011;24973;47.178;15.316;2022-12-26T07:17:57;4.67;;;4.23;;
21798;SDS011;24973;47.178;15.316;2022-12-26T07:20:47;3.03;;;2.73;;
21798;SDS011;24973;47.178;15.316;2022-12-26T07:23:36;1.63;;;1.53;;
21798;SDS011;24973;47.178;15.316;2022-12-26T07:26:25;3.07;;;2.60;;
21798;SDS011;24973;47.178;15.316;2022-12-26T07:29:14;1.43;;;1.30;;
21798;SDS011;24973;47.178;15.316;2022-12-26T07:32:03;4.13;;;2.73;;
21798;SDS011;24973;47.178;15.316;2022-12-26T07:34:53;5.57;;;3.57;;
21798;SDS011;24973;47.178;15.316;2022-12-26T07:37:43;3.80;;;2.90;;
21798;SDS011;24973;47.178;15.316;2022-12-26T07:40:31;5.37;;;2.93;;
21798;SDS011;24973;47.178;15.316;2022-12-26T07:43:20;6.90;;;3.00;;
21798;SDS011;24973;47.178;15.316;2022-12-26T07:46:09;2.93;;;2.10;;
21798;SDS011;24973;47.178;15.316;2022-12-26T07:48:58;2.40;;;2.20;;
21798;SDS011;24973;47.178;15.316;2022-12-26T07:51:47;2.10;;;1.90;;
21798;SDS011;24973;47.178;15.316;2022-12-26T07:54:38;2.73;;;2.07;;
21798;SDS011;24973;47.178;15.316;2022-12-26T07:57:27;4.57;;;2.27;;
21798;SDS011;24973;47.178;15.316;2022-12-26T08:00:32;2.03;;;1.90;;
21798;SDS011;24973;47.178;15.316;2022-12-26T08:03:21;1.83;;;1.70;;
21798;SDS011;24973;47.178;15.316;2022-12-26T08:06:10;2.90;;;1.97;;
21798;SDS011;24973;47.178;15.316;2022-12-26T08:08:59;3.77;;;2.00;;
21798;SDS011;24973;47.178;15.316;2022-12-26T08:11:49;2.77;;;2.33;;
21798;SDS011;24973;47.178;15.316;2022-12-26T08:14:38;2.80;;;2.17;;
21798;SDS011;24973;47.178;15.316;2022-12-26T08:17:28;2.00;;;1.90;;
21798;SDS011;24973;47.178;15.316;2022-12-26T08:20:18;2.80;;;1.93;;
21798;SDS011;24973;47.178;15.316;2022-12-26T08:23:07;3.47;;;2.43;;
21798;SDS011;24973;47.178;15.316;2022-12-26T08:25:56;2.67;;;1.93;;
21798;SDS011;24973;47.178;15.316;2022-12-26T08:28:46;3.57;;;2.13;;
21798;SDS011;24973;47.178;15.316;2022-12-26T08:31:35;5.13;;;2.47;;
21798;SDS011;24973;47.178;15.316;2022-12-26T08:34:25;4.97;;;2.27;;
21798;SDS011;24973;47.178;15.316;2022-12-26T08:37:20;2.37;;;1.97;;
21798;SDS011;24973;47.178;15.316;2022-12-26T08:40:09;5.20;;;3.40;;
21798;SDS011;24973;47.178;15.316;2022-12-26T08:43:01;3.33;;;3.03;;
21798;SDS011;24973;47.178;15.316;2022-12-26T08:46:09;4.53;;;3.63;;
21798;SDS011;24973;47.178;15.316;2022-12-26T08:48:59;4.87;;;4.23;;
21798;SDS011;24973;47.178;15.316;2022-12-26T08:51:48;8.97;;;5.60;;
21798;SDS011;24973;47.178;15.316;2022-12-26T08:54:36;8.17;;;6.17;;
21798;SDS011;24973;47.178;15.316;2022-12-26T08:57:25;13.63;;;7.43;;
21798;SDS011;24973;47.178;15.316;2022-12-26T09:00:15;15.17;;;8.10;;
21798;SDS011;24973;47.178;15.316;2022-12-26T09:03:06;21.23;;;10.73;;
21798;SDS011;24973;47.178;15.316;2022-12-26T09:05:57;18.60;;;13.23;;
21798;SDS011;24973;47.178;15.316;2022-12-26T09:08:49;6.57;;;5.70;;
21798;SDS011;24973;47.178;15.316;2022-12-26T09:11:38;5.30;;;3.60;;
21798;SDS011;24973;47.178;15.316;2022-12-26T09:14:28;3.87;;;2.67;;
21798;SDS011;24973;47.178;15.316;2022-12-26T09:17:17;7.63;;;4.47;;
21798;SDS011;24973;47.178;15.316;2022-12-26T09:20:08;3.93;;;3.17;;
21798;SDS011;24973;47.178;15.316;2022-12-26T09:22:57;9.47;;;3.43;;
21798;SDS011;24973;47.178;15.316;2022-12-26T09:25:46;3.83;;;3.17;;
21798;SDS011;24973;47.178;15.316;2022-12-26T09:28:36;2.63;;;2.17;;
21798;SDS011;24973;47.178;15.316;2022-12-26T09:31:25;3.07;;;2.20;;
21798;SDS011;24973;47.178;15.316;2022-12-26T09:34:16;4.70;;;2.60;;
21798;SDS011;24973;47.178;15.316;2022-12-26T09:37:06;3.07;;;2.60;;
21798;SDS011;24973;47.178;15.316;2022-12-26T09:39:55;2.43;;;2.20;;
21798;SDS011;24973;47.178;15.316;2022-12-26T09:42:47;5.73;;;3.30;;
21798;SDS011;24973;47.178;15.316;2022-12-26T09:45:50;3.37;;;2.43;;
21798;SDS011;24973;47.178;15.316;2022-12-26T09:48:53;3.37;;;2.87;;
21798;SDS011;24973;47.178;15.316;2022-12-26T09:51:49;4.87;;;3.37;;
21798;SDS011;24973;47.178;15.316;2022-12-26T09:54:46;5.90;;;2.77;;
21798;SDS011;24973;47.178;15.316;2022-12-26T09:57:40;3.13;;;2.63;;
21798;SDS011;24973;47.178;15.316;2022-12-26T10:00:35;3.90;;;2.53;;
21798;SDS011;24973;47.178;15.316;2022-12-26T10:03:32;2.90;;;2.50;;
21798;SDS011;24973;47.178;15.316;2022-12-26T10:06:28;5.27;;;2.60;;
21798;SDS011;24973;47.178;15.316;2022-12-26T10:09:35;3.33;;;2.47;;
21798;SDS011;24973;47.178;15.316;2022-12-26T10:12:45;2.67;;;2.00;;
21798;SDS011;24973;47.178;15.316;2022-12-26T10:15:44;2.60;;;2.10;;
21798;SDS011;24973;47.178;15.316;2022-12-26T10:18:38;2.20;;;2.00;;
21798;SDS011;24973;47.178;15.316;2022-12-26T10:21:44;2.73;;;1.90;;
21798;SDS011;24973;47.178;15.316;2022-12-26T10:24:39;3.07;;;2.10;;
21798;SDS011;24973;47.178;15.316;2022-12-26T10:27:31;2.70;;;2.23;;
21798;SDS011;24973;47.178;15.316;2022-12-26T10:30:31;2.10;;;1.57;;
21798;SDS011;24973;47.178;15.316;2022-12-26T10:33:29;3.47;;;2.00;;
21798;SDS011;24973;47.178;15.316;2022-12-26T10:36:28;3.30;;;2.23;;
21798;SDS011;24973;47.178;15.316;2022-12-26T10:39:22;3.67;;;2.30;;
21798;SDS011;24973;47.178;15.316;2022-12-26T10:42:18;1.90;;;1.60;;
21798;SDS011;24973;47.178;15.316;2022-12-26T10:45:16;4.73;;;2.60;;
21798;SDS011;24973;47.178;15.316;2022-12-26T10:48:09;3.00;;;1.90;;
21798;SDS011;24973;47.178;15.316;2022-12-26T10:51:01;2.63;;;2.27;;
21798;SDS011;24973;47.178;15.316;2022-12-26T10:53:51;2.83;;;2.60;;
21798;SDS011;24973;47.178;15.316;2022-12-26T10:56:41;2.63;;;2.13;;
21798;SDS011;24973;47.178;15.316;2022-12-26T10:59:37;3.63;;;2.03;;
21798;SDS011;24973;47.178;15.316;2022-12-26T11:02:31;2.77;;;2.50;;
21798;SDS011;24973;47.178;15.316;2022-12-26T11:05:21;3.20;;;2.60;;
21798;SDS011;24973;47.178;15.316;2022-12-26T11:08:26;3.37;;;1.83;;
21798;SDS011;24973;47.178;15.316;2022-12-26T11:11:23;2.30;;;2.00;;
21798;SDS011;24973;47.178;15.316;2022-12-26T11:14:33;2.83;;;2.27;;
21798;SDS011;24973;47.178;15.316;2022-12-26T11:17:26;2.37;;;1.90;;
21798;SDS011;24973;47.178;15.316;2022-12-26T11:20:23;2.23;;;1.87;;
21798;SDS011;24973;47.178;15.316;2022-12-26T11:23:20;3.65;;;2.00;;
21798;SDS011;24973;47.178;15.316;2022-12-26T11:26:18;4.10;;;3.03;;
21798;SDS011;24973;47.178;15.316;2022-12-26T11:29:11;2.17;;;1.77;;
21798;SDS011;24973;47.178;15.316;2022-12-26T11:32:02;2.07;;;1.87;;
21798;SDS011;24973;47.178;15.316;2022-12-26T11:34:52;2.47;;;2.27;;
21798;SDS011;24973;47.178;15.316;2022-12-26T11:37:43;3.37;;;2.20;;
21798;SDS011;24973;47.178;15.316;2022-12-26T11:40:35;3.27;;;1.87;;
21798;SDS011;24973;47.178;15.316;2022-12-26T11:43:46;2.33;;;1.70;;
21798;SDS011;24973;47.178;15.316;2022-12-26T11:46:37;1.80;;;1.70;;
21798;SDS011;24973;47.178;15.316;2022-12-26T11:49:31;4.90;;;1.80;;
21798;SDS011;24973;47.178;15.316;2022-12-26T11:52:35;3.60;;;1.60;;
21798;SDS011;24973;47.178;15.316;2022-12-26T11:55:29;2.57;;;2.03;;
21798;SDS011;24973;47.178;15.316;2022-12-26T11:58:20;8.03;;;3.60;;
21798;SDS011;24973;47.178;15.316;2022-12-26T12:01:11;4.37;;;2.80;;
21798;SDS011;24973;47.178;15.316;2022-12-26T12:04:03;2.20;;;1.73;;
21798;SDS011;24973;47.178;15.316;2022-12-26T12:06:55;8.40;;;2.13;;
21798;SDS011;24973;47.178;15.316;2022-12-26T12:09:54;8.17;;;1.97;;
21798;SDS011;24973;47.178;15.316;2022-12-26T12:12:52;2.67;;;1.80;;
21798;SDS011;24973;47.178;15.316;2022-12-26T12:15:50;3.50;;;1.73;;
21798;SDS011;24973;47.178;15.316;2022-12-26T12:18:49;1.87;;;1.67;;
21798;SDS011;24973;47.178;15.316;2022-12-26T12:21:45;3.20;;;2.27;;
21798;SDS011;24973;47.178;15.316;2022-12-26T12:24:54;2.13;;;1.67;;
21798;SDS011;24973;47.178;15.316;2022-12-26T12:28:24;3.37;;;2.00;;
21798;SDS011;24973;47.178;15.316;2022-12-26T12:31:37;3.47;;;2.37;;
21798;SDS011;24973;47.178;15.316;2022-12-26T12:34:45;3.13;;;2.30;;
21798;SDS011;24973;47.178;15.316;2022-12-26T12:38:29;2.80;;;1.87;;
21798;SDS011;24973;47.178;15.316;2022-12-26T12:41:24;3.67;;;1.60;;
21798;SDS011;24973;47.178;15.316;2022-12-26T12:44:29;3.07;;;1.57;;
21798;SDS011;24973;47.178;15.316;2022-12-26T12:47:42;2.13;;;1.90;;
21798;SDS011;24973;47.178;15.316;2022-12-26T12:51:00;2.83;;;1.80;;
21798;SDS011;24973;47.178;15.316;2022-12-26T12:54:04;2.30;;;1.73;;
21798;SDS011;24973;47.178;15.316;2022-12-26T12:57:17;2.60;;;1.90;;
21798;SDS011;24973;47.178;15.316;2022-12-26T13:00:14;2.60;;;1.70;;
21798;SDS011;24973;47.178;15.316;2022-12-26T13:03:08;1.47;;;1.30;;
21798;SDS011;24973;47.178;15.316;2022-12-26T13:06:05;2.80;;;2.07;;
21798;SDS011;24973;47.178;15.316;2022-12-26T13:08:59;1.77;;;1.67;;
21798;SDS011;24973;47.178;15.316;2022-12-26T13:12:07;3.50;;;2.57;;
21798;SDS011;24973;47.178;15.316;2022-12-26T13:15:04;1.47;;;1.37;;
21798;SDS011;24973;47.178;15.316;2022-12-26T13:17:58;2.60;;;1.27;;
21798;SDS011;24973;47.178;15.316;2022-12-26T13:20:52;2.63;;;1.77;;
21798;SDS011;24973;47.178;15.316;2022-12-26T13:23:47;1.73;;;1.63;;
21798;SDS011;24973;47.178;15.316;2022-12-26T13:26:59;2.87;;;1.90;;
21798;SDS011;24973;47.178;15.316;2022-12-26T13:29:52;2.33;;;1.77;;
21798;SDS011;24973;47.178;15.316;2022-12-26T13:32:41;3.57;;;2.60;;
21798;SDS011;24973;47.178;15.316;2022-12-26T13:35:53;5.97;;;1.97;;
21798;SDS011;24973;47.178;15.316;2022-12-26T13:42:30;4.63;;;2.17;;
21798;SDS011;24973;47.178;15.316;2022-12-26T13:45:48;2.97;;;2.40;;
21798;SDS011;24973;47.178;15.316;2022-12-26T13:48:53;4.20;;;1.80;;
21798;SDS011;24973;47.178;15.316;2022-12-26T13:51:50;2.00;;;1.70;;
21798;SDS011;24973;47.178;15.316;2022-12-26T14:02:00;2.10;;;1.60;;
21798;SDS011;24973;47.178;15.316;2022-12-26T14:05:13;2.80;;;1.80;;
21798;SDS011;24973;47.178;15.316;2022-12-26T14:08:12;2.33;;;2.10;;
21798;SDS011;24973;47.178;15.316;2022-12-26T14:11:17;5.73;;;2.10;;
21798;SDS011;24973;47.178;15.316;2022-12-26T14:14:23;2.43;;;2.23;;
21798;SDS011;24973;47.178;15.316;2022-12-26T14:17:28;3.83;;;2.57;;
21798;SDS011;24973;47.178;15.316;2022-12-26T14:20:29;2.87;;;1.93;;
21798;SDS011;24973;47.178;15.316;2022-12-26T14:23:33;3.30;;;2.40;;
21798;SDS011;24973;47.178;15.316;2022-12-26T14:26:34;2.30;;;2.10;;
21798;SDS011;24973;47.178;15.316;2022-12-26T14:29:33;2.73;;;2.40;;
21798;SDS011;24973;47.178;15.316;2022-12-26T14:32:37;3.07;;;2.10;;
21798;SDS011;24973;47.178;15.316;2022-12-26T14:35:36;2.77;;;2.53;;
21798;SDS011;24973;47.178;15.316;2022-12-26T14:38:36;4.47;;;2.60;;
21798;SDS011;24973;47.178;15.316;2022-12-26T14:45:36;6.23;;;3.00;;
21798;SDS011;24973;47.178;15.316;2022-12-26T14:48:42;2.73;;;2.43;;
21798;SDS011;24973;47.178;15.316;2022-12-26T14:51:45;3.37;;;2.20;;
21798;SDS011;24973;47.178;15.316;2022-12-26T14:54:36;2.33;;;1.80;;
21798;SDS011;24973;47.178;15.316;2022-12-26T14:57:43;2.80;;;1.93;;
21798;SDS011;24973;47.178;15.316;2022-12-26T15:00:34;2.30;;;1.83;;
21798;SDS011;24973;47.178;15.316;2022-12-26T15:03:32;4.00;;;2.33;;
21798;SDS011;24973;47.178;15.316;2022-12-26T15:06:45;6.80;;;2.53;;
21798;SDS011;24973;47.178;15.316;2022-12-26T15:10:01;3.37;;;2.50;;
21798;SDS011;24973;47.178;15.316;2022-12-26T15:13:30;2.90;;;2.00;;
21798;SDS011;24973;47.178;15.316;2022-12-26T15:17:01;2.60;;;2.30;;
21798;SDS011;24973;47.178;15.316;2022-12-26T15:20:05;6.60;;;2.23;;
21798;SDS011;24973;47.178;15.316;2022-12-26T15:27:54;11.30;;;4.67;;
21798;SDS011;24973;47.178;15.316;2022-12-26T15:31:30;7.33;;;2.60;;
21798;SDS011;24973;47.178;15.316;2022-12-26T15:34:40;2.20;;;1.60;;
21798;SDS011;24973;47.178;15.316;2022-12-26T15:37:42;2.33;;;1.73;;
21798;SDS011;24973;47.178;15.316;2022-12-26T15:40:50;3.10;;;1.80;;
21798;SDS011;24973;47.178;15.316;2022-12-26T15:43:50;2.53;;;1.97;;
21798;SDS011;24973;47.178;15.316;2022-12-26T15:46:49;3.23;;;2.00;;
21798;SDS011;24973;47.178;15.316;2022-12-26T15:49:59;2.30;;;1.53;;
21798;SDS011;24973;47.178;15.316;2022-12-26T15:53:08;2.77;;;1.63;;
21798;SDS011;24973;47.178;15.316;2022-12-26T16:03:00;2.53;;;1.90;;
21798;SDS011;24973;47.178;15.316;2022-12-26T16:06:08;1.30;;;1.20;;
21798;SDS011;24973;47.178;15.316;2022-12-26T16:09:22;4.07;;;1.67;;
21798;SDS011;24973;47.178;15.316;2022-12-26T16:12:24;5.13;;;3.17;;
21798;SDS011;24973;47.178;15.316;2022-12-26T16:15:17;7.27;;;3.00;;
21798;SDS011;24973;47.178;15.316;2022-12-26T16:18:13;5.77;;;3.83;;
21798;SDS011;24973;47.178;15.316;2022-12-26T16:21:04;3.90;;;3.07;;
21798;SDS011;24973;47.178;15.316;2022-12-26T16:24:11;3.90;;;3.37;;
21798;SDS011;24973;47.178;15.316;2022-12-26T16:27:02;6.17;;;4.00;;
21798;SDS011;24973;47.178;15.316;2022-12-26T16:29:55;4.80;;;3.10;;
21798;SDS011;24973;47.178;15.316;2022-12-26T16:32:53;4.00;;;2.87;;
21798;SDS011;24973;47.178;15.316;2022-12-26T16:35:43;6.40;;;3.20;;
21798;SDS011;24973;47.178;15.316;2022-12-26T16:38:32;4.27;;;2.60;;
21798;SDS011;24973;47.178;15.316;2022-12-26T16:41:21;3.53;;;2.57;;
21798;SDS011;24973;47.178;15.316;2022-12-26T16:44:20;2.67;;;2.20;;
21798;SDS011;24973;47.178;15.316;2022-12-26T16:47:16;2.67;;;2.40;;
21798;SDS011;24973;47.178;15.316;2022-12-26T16:50:13;2.37;;;2.17;;
21798;SDS011;24973;47.178;15.316;2022-12-26T16:53:08;3.07;;;2.30;;
21798;SDS011;24973;47.178;15.316;2022-12-26T16:56:11;4.17;;;2.83;;
21798;SDS011;24973;47.178;15.316;2022-12-26T16:59:14;3.77;;;3.03;;
21798;SDS011;24973;47.178;15.316;2022-12-26T17:02:11;2.97;;;2.73;;
21798;SDS011;24973;47.178;15.316;2022-12-26T17:05:05;2.50;;;2.30;;
21798;SDS011;24973;47.178;15.316;2022-12-26T17:08:09;4.07;;;2.53;;
21798;SDS011;24973;47.178;15.316;2022-12-26T17:11:01;4.83;;;4.40;;
21798;SDS011;24973;47.178;15.316;2022-12-26T17:13:51;15.13;;;11.23;;
21798;SDS011;24973;47.178;15.316;2022-12-26T17:16:41;6.43;;;4.30;;
21798;SDS011;24973;47.178;15.316;2022-12-26T17:19:30;11.27;;;2.93;;
21798;SDS011;24973;47.178;15.316;2022-12-26T17:22:27;4.00;;;3.07;;
21798;SDS011;24973;47.178;15.316;2022-12-26T17:25:22;3.00;;;2.80;;
21798;SDS011;24973;47.178;15.316;2022-12-26T17:28:26;4.20;;;2.83;;
21798;SDS011;24973;47.178;15.316;2022-12-26T17:31:17;3.30;;;3.00;;
21798;SDS011;24973;47.178;15.316;2022-12-26T17:34:22;2.43;;;2.27;;
21798;SDS011;24973;47.178;15.316;2022-12-26T17:37:15;4.97;;;2.83;;
21798;SDS011;24973;47.178;15.316;2022-12-26T17:40:19;4.23;;;3.03;;
21798;SDS011;24973;47.178;15.316;2022-12-26T17:43:18;5.47;;;3.57;;
21798;SDS011;24973;47.178;15.316;2022-12-26T17:46:11;5.80;;;4.33;;
21798;SDS011;24973;47.178;15.316;2022-12-26T17:49:02;5.33;;;4.80;;
21798;SDS011;24973;47.178;15.316;2022-12-26T17:51:51;9.43;;;4.03;;
21798;SDS011;24973;47.178;15.316;2022-12-26T17:54:45;10.67;;;7.87;;
21798;SDS011;24973;47.178;15.316;2022-12-26T17:57:37;9.10;;;6.63;;